Time;durP1;ratioP1;P1;durP2;ratioP2;P2;SDS_P1;SDS_P2;PMS_P1;PMS_P2;Temp;Humidity;BMP_temperature;BMP_pressure;BME280_temperature;BME280_humidity;BME280_pressure;Samples;Min_cycle;Max_cycle;Signal;HPM_P1;HPM_P2
2022/01/26 00:07:55;;;;;;;5.93;3.20;;;;;;;-6.19;62.74;95472.56;5072485;28;20218;-74
2022/01/26 00:10:22;;;;;;;5.47;2.28;;;;;;;-6.21;63.07;95473.75;5075202;28;20207;-74
2022/01/26 00:12:49;;;;;;;3.75;2.13;;;;;;;-6.09;63.29;95474.78;5074549;28;20266;-73
2022/01/26 00:15:16;;;;;;;3.60;2.05;;;;;;;-6.07;62.43;95467.47;5066109;28;20199;-72
2022/01/26 00:17:43;;;;;;;9.52;4.13;;;;;;;-6.15;63.05;95471.09;5084507;28;20643;-73
2022/01/26 00:20:17;;;;;;;5.15;2.30;;;;;;;-6.17;63.56;95467.06;5087065;28;20665;-73
2022/01/26 00:22:59;;;;;;;6.65;2.63;;;;;;;-6.08;62.94;95463.22;5072768;28;20228;-73
2022/01/26 00:25:39;;;;;;;5.03;2.75;;;;;;;-6.09;62.68;95464.22;5072876;28;20265;-73
2022/01/26 00:28:31;;;;;;;12.85;4.38;;;;;;;-6.00;61.79;95463.00;5072164;28;20234;-74
2022/01/26 00:39:11;;;;;;;6.15;3.03;;;;;;;-5.93;62.76;95450.63;5073852;28;20619;-73
2022/01/26 00:41:40;;;;;;;6.35;3.92;;;;;;;-5.98;63.41;95449.59;5083808;28;20210;-73
2022/01/26 00:44:08;;;;;;;6.20;2.90;;;;;;;-5.95;62.87;95457.13;5071522;28;20195;-72
2022/01/26 00:46:37;;;;;;;6.57;3.70;;;;;;;-5.96;62.94;95452.84;5071690;28;20230;-73
2022/01/26 00:49:04;;;;;;;4.05;2.63;;;;;;;-5.93;62.44;95450.63;5072017;28;20199;-73
2022/01/26 00:51:31;;;;;;;11.23;2.97;;;;;;;-5.96;62.70;95452.84;5072735;28;20203;-73
2022/01/26 00:54:03;;;;;;;8.18;3.50;;;;;;;-6.06;62.57;95458.56;5072787;28;20225;-73
2022/01/26 00:56:30;;;;;;;2.25;1.30;;;;;;;-6.12;62.72;95454.09;5072508;28;20506;-73
2022/01/26 00:58:59;;;;;;;5.50;2.08;;;;;;;-6.17;62.67;95459.16;5072965;28;20211;-75
2022/01/26 01:01:26;;;;;;;12.02;3.17;;;;;;;-6.23;63.45;95444.97;5085031;28;20561;-73
2022/01/26 01:03:54;;;;;;;4.63;3.08;;;;;;;-6.29;63.19;95458.16;5073256;28;20234;-73
2022/01/26 01:06:24;;;;;;;10.93;5.78;;;;;;;-6.99;66.62;95462.09;5072681;28;20631;-73
2022/01/26 01:08:54;;;;;;;11.40;7.53;;;;;;;-7.29;67.21;95462.41;5072362;28;20195;-73
2022/01/26 01:11:21;;;;;;;23.35;10.05;;;;;;;-7.61;69.25;95452.53;5072933;28;20229;-73
2022/01/26 01:13:48;;;;;;;23.42;8.25;;;;;;;-7.89;70.14;95456.03;5071756;28;20203;-73
2022/01/26 01:16:20;;;;;;;13.30;6.55;;;;;;;-8.02;70.79;95458.56;5072310;28;20219;-73
2022/01/26 01:18:55;;;;;;;32.72;13.52;;;;;;;-8.15;71.23;95461.13;5071512;28;20231;-72
2022/01/26 01:24:38;;;;;;;31.67;11.85;;;;;;;-8.05;73.69;95456.31;5072506;28;20585;-72
2022/01/26 01:29:59;;;;;;;31.42;12.77;;;;;;;-8.04;73.17;95463.19;5050778;28;20716;-73
2022/01/26 01:32:36;;;;;;;27.15;9.63;;;;;;;-8.13;72.55;95448.59;5072370;28;20190;-73
2022/01/26 01:35:07;;;;;;;20.48;9.13;;;;;;;-8.08;71.86;95453.28;5071928;28;20278;-73
2022/01/26 01:37:34;;;;;;;76.13;32.47;;;;;;;-8.24;72.04;95454.38;5072311;28;20274;-72
2022/01/26 01:40:02;;;;;;;69.53;29.00;;;;;;;-8.24;71.76;95457.00;5071922;28;20206;-72
2022/01/26 01:42:30;;;;;;;71.82;29.92;;;;;;;-8.21;71.70;95456.63;5072360;28;20206;-73
2022/01/26 01:44:57;;;;;;;69.78;30.30;;;;;;;-8.10;72.55;95442.97;5071802;28;20214;-72
2022/01/26 01:47:24;;;;;;;64.45;28.23;;;;;;;-7.91;73.32;95437.00;5071455;28;20246;-73
2022/01/26 01:49:53;;;;;;;70.43;29.77;;;;;;;-7.75;72.79;95429.81;5071786;28;20199;-72
2022/01/26 01:52:20;;;;;;;59.55;27.27;;;;;;;-7.68;71.46;95441.19;5071715;28;20206;-72
2022/01/26 01:54:52;;;;;;;67.32;28.13;;;;;;;-7.52;70.94;95432.97;5071492;28;20217;-72
2022/01/26 01:57:23;;;;;;;15.05;6.88;;;;;;;-7.54;71.39;95421.84;5071442;28;20223;-73
2022/01/26 01:59:51;;;;;;;20.85;8.57;;;;;;;-7.39;70.67;95422.50;5059518;28;20560;-72
2022/01/26 02:02:18;;;;;;;30.83;7.85;;;;;;;-7.47;70.47;95417.41;5070885;28;20268;-72
2022/01/26 02:04:45;;;;;;;15.43;7.68;;;;;;;-7.48;71.54;95423.66;5071126;28;20221;-73
2022/01/26 02:07:14;;;;;;;14.98;7.93;;;;;;;-7.19;70.75;95415.47;5071390;28;20245;-73
2022/01/26 02:09:41;;;;;;;17.35;6.32;;;;;;;-6.89;72.19;95415.94;5071374;28;20589;-72
2022/01/26 02:12:22;;;;;;;32.00;8.55;;;;;;;-6.64;71.07;95413.53;5071478;28;20203;-73
2022/01/26 02:14:54;;;;;;;30.45;9.30;;;;;;;-6.96;68.94;95416.94;5071032;28;20222;-73
2022/01/26 02:17:38;;;;;;;12.95;7.05;;;;;;;-7.00;69.76;95413.09;5071281;28;20280;-73
2022/01/26 02:53:14;;;;;;;13.07;5.97;;;;;;;-6.49;69.23;95403.63;5056928;28;20198;-73
2022/01/26 02:55:44;;;;;;;7.20;3.72;;;;;;;-6.58;69.46;95407.47;5070959;28;20576;-73
2022/01/26 02:58:43;;;;;;;17.60;7.55;;;;;;;-6.29;70.42;95400.19;5070811;28;20219;-72
2022/01/26 03:04:04;;;;;;;12.90;5.55;;;;;;;-6.58;69.05;95399.56;5068413;28;20333;-73
2022/01/26 03:06:38;;;;;;;20.92;6.05;;;;;;;-6.85;68.96;95396.09;5072043;28;20651;-73
2022/01/26 03:09:11;;;;;;;15.82;4.55;;;;;;;-6.97;69.56;95396.91;5070443;28;20266;-74
2022/01/26 03:11:40;;;;;;;2.88;2.50;;;;;;;-7.12;70.27;95397.06;5070810;28;20202;-73
2022/01/26 03:14:15;;;;;;;9.30;4.10;;;;;;;-7.07;70.88;95404.34;5070750;28;20203;-73
2022/01/26 03:16:47;;;;;;;10.75;4.85;;;;;;;-7.06;70.85;95409.41;5070826;28;20195;-73
2022/01/26 03:19:21;;;;;;;10.93;4.85;;;;;;;-7.10;71.70;95410.00;5069927;28;20597;-73
2022/01/26 03:22:04;;;;;;;18.52;3.03;;;;;;;-7.05;71.18;95408.41;5071734;28;20304;-74
2022/01/26 03:30:20;;;;;;;11.68;4.95;;;;;;;-6.89;70.88;95399.34;5053854;28;20568;-74
2022/01/26 03:35:42;;;;;;;8.68;4.70;;;;;;;-6.30;70.00;95390.66;5048636;28;20567;-74
2022/01/26 03:38:17;;;;;;;16.13;5.22;;;;;;;-6.36;68.83;95373.00;5070695;28;20203;-73
2022/01/26 03:40:46;;;;;;;10.77;4.95;;;;;;;-6.23;68.97;95381.69;5070495;28;20207;-73
2022/01/26 03:43:12;;;;;;;20.35;7.38;;;;;;;-6.10;67.80;95378.22;5072809;28;20222;-73
2022/01/26 03:45:39;;;;;;;10.32;3.72;;;;;;;-5.75;66.74;95379.56;5074875;28;20210;-73
2022/01/26 03:48:06;;;;;;;5.15;3.20;;;;;;;-5.57;67.23;95378.03;5074714;28;20237;-73
2022/01/26 03:50:33;;;;;;;4.68;2.60;;;;;;;-5.38;67.10;95377.16;5074193;28;20249;-73
2022/01/26 03:53:00;;;;;;;6.95;2.95;;;;;;;-5.13;65.84;95374.59;5074327;28;20202;-74
2022/01/26 03:55:27;;;;;;;4.65;2.35;;;;;;;-4.95;65.28;95372.06;5073504;28;20809;-74
2022/01/26 03:57:55;;;;;;;5.13;2.65;;;;;;;-4.86;64.92;95372.59;5073960;28;20199;-73
2022/01/26 04:00:22;;;;;;;6.65;2.90;;;;;;;-4.78;64.02;95361.75;5057542;28;20200;-73
2022/01/26 04:02:49;;;;;;;5.65;3.55;;;;;;;-4.67;63.10;95358.44;5064115;28;20264;-73
2022/01/26 04:05:16;;;;;;;3.38;2.10;;;;;;;-4.61;62.79;95368.16;5073592;28;20607;-73
2022/01/26 04:07:44;;;;;;;8.15;3.75;;;;;;;-4.57;61.48;95357.97;5074037;28;20641;-73
2022/01/26 04:10:19;;;;;;;5.05;2.35;;;;;;;-4.55;61.00;95359.38;5086928;28;20317;-74
2022/01/26 04:12:46;;;;;;;7.97;4.57;;;;;;;-4.47;61.99;95353.81;5073817;28;20284;-73
2022/01/26 04:15:24;;;;;;;6.05;2.92;;;;;;;-4.38;62.08;95367.56;5073814;28;20215;-73
2022/01/26 04:17:51;;;;;;;4.95;2.70;;;;;;;-4.33;62.07;95360.59;5073674;28;20242;-73
2022/01/26 04:20:18;;;;;;;6.88;3.42;;;;;;;-4.31;62.17;95344.53;5073193;28;20329;-72
2022/01/26 04:22:55;;;;;;;7.70;2.97;;;;;;;-4.24;62.22;95349.75;5073898;28;20257;-73
2022/01/26 04:25:24;;;;;;;4.35;2.42;;;;;;;-4.18;61.68;95346.22;5073526;28;20218;-74
2022/01/26 04:27:54;;;;;;;5.82;3.60;;;;;;;-4.11;62.08;95341.69;5072893;28;20242;-74
2022/01/26 04:30:23;;;;;;;14.88;3.78;;;;;;;-4.19;60.96;95339.31;5073381;28;20294;-74
2022/01/26 04:32:50;;;;;;;4.60;3.60;;;;;;;-4.17;61.78;95337.28;5073357;28;20724;-73
2022/01/26 04:35:16;;;;;;;5.57;2.78;;;;;;;-4.15;61.71;95335.22;5073517;28;20210;-73
2022/01/26 04:38:07;;;;;;;3.72;2.28;;;;;;;-4.10;61.28;95343.31;5076034;28;20206;-75
2022/01/26 04:40:40;;;;;;;8.88;2.17;;;;;;;-4.04;61.29;95342.44;5079684;28;20696;-75
2022/01/26 04:43:14;;;;;;;4.97;2.50;;;;;;;-4.03;61.23;95341.41;5060478;28;20242;-74
2022/01/26 04:45:42;;;;;;;7.80;4.35;;;;;;;-4.11;61.25;95341.69;5072622;28;20289;-75
2022/01/26 04:48:09;;;;;;;7.43;3.88;;;;;;;-4.21;61.11;95344.81;5073298;28;20252;-73
2022/01/26 04:50:36;;;;;;;3.83;2.38;;;;;;;-4.18;61.36;95352.34;5071773;28;20203;-74
2022/01/26 04:53:03;;;;;;;4.82;3.20;;;;;;;-4.21;61.32;95344.81;5072885;28;20246;-73
2022/01/26 04:55:30;;;;;;;7.22;3.13;;;;;;;-4.43;61.36;95328.56;5073801;28;20199;-74
2022/01/26 04:57:57;;;;;;;11.13;3.50;;;;;;;-4.16;61.69;95344.19;5083961;28;20230;-73
2022/01/26 05:00:24;;;;;;;3.83;1.85;;;;;;;-4.19;61.85;95339.31;5072928;28;20199;-76
2022/01/26 05:02:52;;;;;;;7.05;4.25;;;;;;;-4.22;61.76;95337.09;5073245;28;20202;-73
2022/01/26 05:05:19;;;;;;;7.50;3.15;;;;;;;-4.20;61.19;95337.69;5073071;28;20195;-72
2022/01/26 05:07:46;;;;;;;9.18;3.92;;;;;;;-4.17;62.13;95345.19;5072515;28;20238;-74
2022/01/26 05:10:13;;;;;;;9.30;4.47;;;;;;;-4.09;61.29;95337.78;5072793;28;20215;-75
2022/01/26 05:12:40;;;;;;;5.72;2.72;;;;;;;-4.00;60.52;95338.31;5072496;28;20202;-74
2022/01/26 05:15:08;;;;;;;13.23;5.00;;;;;;;-4.07;60.78;95353.44;5072406;28;20234;-75
2022/01/26 05:17:36;;;;;;;6.55;2.80;;;;;;;-4.18;61.77;95340.94;5076907;28;20959;-74
2022/01/26 05:20:07;;;;;;;6.32;3.75;;;;;;;-4.15;62.24;95346.59;5070385;28;20245;-75
2022/01/26 05:22:34;;;;;;;4.32;3.03;;;;;;;-4.13;62.15;95343.75;5072601;28;20289;-74
2022/01/26 05:25:01;;;;;;;5.18;2.95;;;;;;;-4.02;61.72;95343.03;5072485;28;20230;-75
2022/01/26 05:27:28;;;;;;;12.55;4.35;;;;;;;-4.03;62.49;95344.03;5072346;28;20203;-74
2022/01/26 05:29:55;;;;;;;7.47;3.65;;;;;;;-4.10;61.60;95344.09;5072032;28;20230;-73
2022/01/26 05:32:22;;;;;;;4.47;2.58;;;;;;;-4.10;61.92;95332.75;5084519;28;20206;-74
2022/01/26 05:34:48;;;;;;;7.55;3.30;;;;;;;-4.10;61.95;95338.03;5073022;28;20215;-74
2022/01/26 05:37:17;;;;;;;6.03;2.80;;;;;;;-4.08;63.18;95333.31;5071885;28;20210;-73
2022/01/26 05:39:44;;;;;;;7.18;3.40;;;;;;;-4.08;63.44;95338.59;5072154;28;20292;-74
2022/01/26 05:42:10;;;;;;;10.15;4.50;;;;;;;-4.06;63.05;95333.91;5072437;28;20540;-74
2022/01/26 05:44:37;;;;;;;4.60;3.70;;;;;;;-4.00;63.75;95333.03;5072343;28;20230;-74
2022/01/26 05:47:07;;;;;;;8.18;4.57;;;;;;;-4.01;63.78;95329.59;5072851;28;20250;-75
2022/01/26 05:49:34;;;;;;;6.65;3.72;;;;;;;-3.88;63.66;95330.47;5072717;28;20242;-75
2022/01/26 05:52:01;;;;;;;10.60;4.18;;;;;;;-3.89;63.86;95320.91;5071680;28;20226;-74
2022/01/26 05:54:29;;;;;;;10.88;4.82;;;;;;;-3.09;76.44;95334.78;5071208;28;20203;-75
2022/01/26 05:56:56;;;;;;;6.35;3.53;;;;;;;-3.04;68.06;95333.06;5071237;28;20203;-75
2022/01/26 05:59:23;;;;;;;6.88;3.00;;;;;;;-2.43;68.27;95329.28;5068616;28;20210;-75
2022/01/26 06:01:50;;;;;;;5.38;2.58;;;;;;;-3.25;63.31;95328.25;5071611;28;20210;-75
2022/01/26 06:04:18;;;;;;;5.03;2.35;;;;;;;-3.65;65.75;95342.00;5071861;28;20202;-73
2022/01/26 06:06:45;;;;;;;15.30;5.00;;;;;;;-3.74;65.31;95332.75;5070824;28;20199;-73
2022/01/26 06:09:12;;;;;;;10.13;4.93;;;;;;;-3.81;65.04;95329.34;5062030;28;20445;-78
2022/01/26 06:11:40;;;;;;;9.52;5.13;;;;;;;-3.82;65.93;95346.25;5068010;28;20199;-77
2022/01/26 06:14:07;;;;;;;6.68;4.75;;;;;;;-3.86;65.23;95333.69;5081159;28;20230;-80
2022/01/26 06:16:34;;;;;;;7.20;3.58;;;;;;;-3.92;65.82;95348.59;5070853;28;20226;-77
2022/01/26 06:19:01;;;;;;;9.45;4.25;;;;;;;-3.90;66.78;95338.63;5071235;28;20227;-76
2022/01/26 06:21:28;;;;;;;6.55;3.53;;;;;;;-3.90;66.99;95338.63;5070948;28;20195;-80
2022/01/26 06:23:54;;;;;;;6.60;2.67;;;;;;;-3.85;66.31;95336.13;5070315;28;20223;-78
2022/01/26 06:26:21;;;;;;;12.75;2.40;;;;;;;-3.84;67.19;95348.34;5070742;28;20203;-77
2022/01/26 06:28:50;;;;;;;7.70;3.92;;;;;;;-3.75;67.98;95347.00;5070989;28;20223;-75
2022/01/26 06:31:18;;;;;;;8.82;4.63;;;;;;;-3.60;68.18;95344.78;5071128;28;20226;-77
2022/01/26 06:33:47;;;;;;;9.07;3.78;;;;;;;-3.63;69.12;95345.22;5071126;28;20256;-79
2022/01/26 06:36:16;;;;;;;10.60;4.13;;;;;;;-3.56;69.28;95339.88;5070900;28;20217;-74
2022/01/26 06:38:46;;;;;;;7.03;3.45;;;;;;;-3.56;69.14;95339.06;5071036;28;20238;-80
2022/01/26 06:41:14;;;;;;;10.57;3.55;;;;;;;-3.46;69.07;95344.63;5071251;28;20209;-79
2022/01/26 06:43:47;;;;;;;10.90;4.60;;;;;;;-3.52;70.04;95340.22;5071297;28;20272;-78
2022/01/26 06:46:22;;;;;;;12.95;4.90;;;;;;;-3.47;69.51;95332.41;5057294;28;20195;-80
2022/01/26 06:51:34;;;;;;;9.10;3.45;;;;;;;-3.39;70.52;95348.00;5070918;28;20553;-77
2022/01/26 06:54:01;;;;;;;8.52;4.45;;;;;;;-3.40;71.13;95349.84;5070395;28;20219;-78
2022/01/26 06:56:27;;;;;;;9.40;3.88;;;;;;;-3.41;70.90;95347.41;5070534;28;20199;-78
2022/01/26 06:58:54;;;;;;;7.03;3.50;;;;;;;-3.50;71.33;95344.25;5071237;28;20199;-78
2022/01/26 07:01:22;;;;;;;13.32;6.20;;;;;;;-3.50;71.07;95354.03;5070741;28;20210;-81
2022/01/26 07:03:49;;;;;;;7.85;3.63;;;;;;;-3.39;71.98;95355.94;5084442;28;20207;-78
2022/01/26 07:06:16;;;;;;;6.43;3.60;;;;;;;-3.45;71.72;95356.84;5069495;28;20230;-79
2022/01/26 07:08:44;;;;;;;16.95;6.10;;;;;;;-3.35;72.22;95351.81;5064936;28;20234;-77
2022/01/26 07:11:11;;;;;;;9.70;4.47;;;;;;;-3.27;71.92;95354.16;5069242;28;20251;-77
2022/01/26 07:13:39;;;;;;;13.18;6.22;;;;;;;-3.22;72.39;95352.47;5069010;28;20235;-77
2022/01/26 07:21:36;;;;;;;9.10;4.53;;;;;;;-3.09;72.50;95343.53;5069642;28;21137;-79
2022/01/26 07:24:03;;;;;;;10.27;4.57;;;;;;;-3.15;72.65;95340.97;5067394;28;20238;-78
2022/01/26 07:26:30;;;;;;;14.23;6.30;;;;;;;-3.03;73.10;95342.63;5065047;28;20222;-78
2022/01/26 07:29:06;;;;;;;9.00;5.05;;;;;;;-3.05;73.31;95336.75;5071831;28;20280;-79
2022/01/26 07:31:34;;;;;;;5.55;3.17;;;;;;;-2.95;73.31;95347.59;5071516;28;20194;-79
2022/01/26 07:34:02;;;;;;;9.70;6.38;;;;;;;-2.99;72.93;95349.09;5067015;28;20604;-79
2022/01/26 07:36:29;;;;;;;14.52;6.88;;;;;;;-3.01;72.57;95337.94;5073065;28;20215;-85
2022/01/26 07:39:05;;;;;;;14.18;6.88;;;;;;;-2.99;73.69;95346.44;5074208;28;20214;-76
2022/01/26 07:41:32;;;;;;;11.80;5.15;;;;;;;-2.95;73.02;95352.91;5061678;28;20240;-80
2022/01/26 07:43:59;;;;;;;9.00;4.95;;;;;;;-2.84;72.66;95350.50;5073899;28;20199;-77
2022/01/26 07:46:27;;;;;;;6.05;3.72;;;;;;;-2.81;72.18;95344.78;5074195;28;20203;-79
2022/01/26 07:48:54;;;;;;;13.57;5.22;;;;;;;-2.89;72.63;95357.31;5070185;28;20701;-79
2022/01/26 07:51:22;;;;;;;11.95;4.07;;;;;;;-2.76;72.81;95355.50;5067541;28;20204;-79
2022/01/26 07:53:49;;;;;;;14.48;7.03;;;;;;;-2.93;73.66;95356.16;5068002;28;20223;-78
2022/01/26 07:56:17;;;;;;;13.38;6.10;;;;;;;-2.70;73.82;95349.28;5068705;28;20593;-79
2022/01/26 07:58:47;;;;;;;20.25;9.00;;;;;;;-2.78;72.94;95353.09;5068882;28;20264;-79
2022/01/26 08:01:14;;;;;;;20.48;6.55;;;;;;;-2.90;73.86;95355.72;5074050;28;20218;-74
2022/01/26 08:03:40;;;;;;;16.52;6.60;;;;;;;-2.78;74.38;95353.09;5074161;28;20210;-78
2022/01/26 08:06:14;;;;;;;9.63;5.18;;;;;;;-2.62;75.07;95343.66;5074628;28;20217;-80
2022/01/26 08:08:42;;;;;;;14.45;6.43;;;;;;;-2.70;74.50;95354.59;5073169;28;20215;-77
2022/01/26 08:11:09;;;;;;;14.07;5.00;;;;;;;-2.70;74.98;95349.28;5073519;28;20264;-77
2022/01/26 08:13:36;;;;;;;8.18;3.65;;;;;;;-2.60;75.00;95349.56;5070755;28;20227;-77
2022/01/26 08:16:03;;;;;;;10.55;5.07;;;;;;;-2.65;74.87;95344.13;5074035;28;20294;-78
2022/01/26 08:18:30;;;;;;;10.60;5.20;;;;;;;-2.68;75.07;95355.16;5073222;28;20223;-79
2022/01/26 08:21:04;;;;;;;6.35;3.78;;;;;;;-2.67;75.47;95343.53;5070563;28;20219;-81
2022/01/26 08:23:31;;;;;;;6.53;2.85;;;;;;;-2.32;74.52;95346.22;5072145;28;20194;-79
2022/01/26 08:25:59;;;;;;;5.63;3.45;;;;;;;-2.37;74.48;95341.63;5074140;28;20333;-79
2022/01/26 08:28:31;;;;;;;11.82;5.32;;;;;;;-2.22;74.12;95336.69;5053011;28;20196;-78
2022/01/26 08:30:58;;;;;;;9.73;4.25;;;;;;;-2.22;74.79;95334.03;5067215;28;20237;-78
2022/01/26 08:33:25;;;;;;;17.70;6.53;;;;;;;-2.16;74.31;95325.13;5073137;28;20199;-78
2022/01/26 08:35:51;;;;;;;8.43;3.83;;;;;;;-2.04;74.17;95326.97;5073154;28;20634;-77
2022/01/26 08:38:19;;;;;;;11.95;5.45;;;;;;;-2.09;74.06;95327.69;5073248;28;20199;-77
2022/01/26 08:40:47;;;;;;;6.32;4.03;;;;;;;-1.92;74.47;95330.44;5073461;28;20202;-77
2022/01/26 08:43:15;;;;;;;12.60;4.97;;;;;;;-2.07;74.38;95330.91;5073109;28;20209;-79
2022/01/26 08:45:42;;;;;;;8.38;4.70;;;;;;;-1.84;74.28;95343.34;5072798;28;20227;-75
2022/01/26 08:48:09;;;;;;;13.07;4.85;;;;;;;-1.99;74.49;95340.38;5073228;28;20581;-78
2022/01/26 08:50:36;;;;;;;7.65;3.85;;;;;;;-1.88;74.54;95339.53;5072400;28;20237;-77
2022/01/26 08:53:04;;;;;;;6.28;3.40;;;;;;;-1.64;73.71;95338.47;5073109;28;20203;-77
2022/01/26 08:55:33;;;;;;;6.82;3.80;;;;;;;-1.64;73.62;95348.31;5072397;28;20264;-78
2022/01/26 08:58:00;;;;;;;8.00;3.17;;;;;;;-1.58;73.35;95337.53;5072463;28;20214;-77
2022/01/26 09:00:28;;;;;;;6.75;3.53;;;;;;;-1.62;74.03;95352.31;5059386;28;20211;-76
2022/01/26 09:02:55;;;;;;;7.05;3.35;;;;;;;-1.61;73.67;95359.25;5073339;28;20223;-78
2022/01/26 09:05:22;;;;;;;7.50;3.67;;;;;;;-1.60;73.76;95338.81;5073383;28;20301;-78
2022/01/26 09:07:55;;;;;;;9.63;4.70;;;;;;;-1.62;73.81;95347.00;5072550;28;20301;-75
2022/01/26 09:10:22;;;;;;;9.10;4.00;;;;;;;-1.65;73.48;95347.50;5072433;28;20275;-79
2022/01/26 09:12:50;;;;;;;7.47;3.83;;;;;;;-1.57;74.10;95346.31;5072467;28;20246;-77
2022/01/26 09:15:17;;;;;;;6.82;3.42;;;;;;;-1.41;73.34;95358.06;5071477;28;20233;-80
2022/01/26 09:17:46;;;;;;;7.82;3.92;;;;;;;-1.48;73.80;95353.69;5072127;28;20245;-79
2022/01/26 09:20:14;;;;;;;9.43;4.75;;;;;;;-1.50;73.51;95361.06;5072565;28;20210;-77
2022/01/26 09:22:41;;;;;;;7.05;3.25;;;;;;;-1.56;73.81;95362.03;5085191;28;20195;-77
2022/01/26 09:25:09;;;;;;;7.57;3.60;;;;;;;-1.40;73.06;95365.00;5072156;28;20677;-77
2022/01/26 09:27:36;;;;;;;7.10;3.55;;;;;;;-1.61;73.70;95364.56;5072248;28;20202;-77
2022/01/26 09:30:04;;;;;;;9.13;4.65;;;;;;;-1.61;73.88;95361.91;5071832;28;20254;-76
2022/01/26 09:32:31;;;;;;;8.50;3.70;;;;;;;-1.60;74.23;95355.56;5071559;28;20668;-79
2022/01/26 09:35:00;;;;;;;4.65;2.75;;;;;;;-1.46;73.27;95354.25;5071924;28;20223;-78
2022/01/26 09:37:28;;;;;;;14.07;6.05;;;;;;;-1.46;73.08;95346.28;5071755;28;20203;-80
2022/01/26 09:39:56;;;;;;;6.35;3.15;;;;;;;-1.27;74.07;95346.13;5070513;28;20207;-79
2022/01/26 09:42:24;;;;;;;6.38;3.85;;;;;;;-1.26;72.41;95347.75;5069557;28;20230;-80
2022/01/26 09:44:51;;;;;;;6.38;3.20;;;;;;;-1.24;72.85;95337.69;5071963;28;20352;-78
2022/01/26 09:47:17;;;;;;;5.90;4.05;;;;;;;-1.31;73.41;95342.31;5071920;28;20207;-78
2022/01/26 09:49:45;;;;;;;5.97;3.72;;;;;;;-1.29;72.85;95330.41;5071580;28;20704;-77
2022/01/26 09:52:20;;;;;;;11.27;3.88;;;;;;;-1.16;72.31;95334.66;5071330;28;20198;-77
2022/01/26 09:54:48;;;;;;;9.25;3.97;;;;;;;-0.86;72.02;95332.56;5069574;28;20195;-80
2022/01/26 09:57:15;;;;;;;7.15;3.13;;;;;;;-0.81;71.70;95321.19;5072061;28;20207;-79
2022/01/26 09:59:42;;;;;;;9.75;5.13;;;;;;;-0.59;70.97;95323.97;5061200;28;20212;-78
2022/01/26 10:02:20;;;;;;;16.02;5.40;;;;;;;-0.93;72.06;95313.28;5069449;28;20659;-81
2022/01/26 10:04:47;;;;;;;5.25;3.10;;;;;;;-0.75;72.10;95321.06;5072003;28;20561;-80
2022/01/26 10:07:23;;;;;;;8.65;4.55;;;;;;;-0.88;72.46;95323.22;5072262;28;20272;-78
2022/01/26 10:10:28;;;;;;;7.55;3.90;;;;;;;-0.79;71.83;95319.09;5071949;28;20234;-79
2022/01/26 10:15:44;;;;;;;8.20;5.05;;;;;;;-0.82;72.72;95320.38;5060596;28;20229;-78
2022/01/26 10:18:15;;;;;;;4.78;2.92;;;;;;;-0.68;72.05;95314.78;5071854;28;20251;-81
2022/01/26 10:20:46;;;;;;;10.05;5.05;;;;;;;-0.92;72.74;95324.72;5071606;28;20278;-82
2022/01/26 10:23:17;;;;;;;4.63;3.03;;;;;;;-0.69;72.55;95307.84;5071253;28;20222;-81
2022/01/26 10:25:47;;;;;;;7.20;4.10;;;;;;;-0.61;72.43;95312.75;5070688;28;20207;-78
2022/01/26 10:28:16;;;;;;;10.02;3.67;;;;;;;-0.57;72.16;95312.06;5071295;28;20203;-80
2022/01/26 10:30:45;;;;;;;9.02;4.25;;;;;;;-0.53;72.67;95304.38;5071983;28;20281;-81
2022/01/26 10:33:13;;;;;;;19.00;8.23;;;;;;;-0.58;72.85;95304.31;5071467;28;20284;-80
2022/01/26 10:35:40;;;;;;;11.40;4.60;;;;;;;-0.85;73.61;95310.25;5070839;28;20218;-79
2022/01/26 10:38:07;;;;;;;8.75;3.95;;;;;;;-0.99;73.99;95308.94;5071614;28;20234;-77
2022/01/26 10:40:39;;;;;;;3.60;2.50;;;;;;;-0.96;74.35;95316.44;5072038;28;20253;-80
2022/01/26 10:43:10;;;;;;;8.90;4.35;;;;;;;-0.94;74.02;95305.53;5071587;28;20740;-85
2022/01/26 10:45:51;;;;;;;4.47;3.28;;;;;;;-1.04;75.45;95316.81;5071351;28;20199;-85
2022/01/26 10:48:28;;;;;;;6.65;3.92;;;;;;;-1.06;75.49;95302.94;5065834;28;20313;-84
2022/01/26 10:53:44;;;;;;;8.55;4.13;;;;;;;-0.87;75.28;95300.88;5045200;28;20284;-85
2022/01/26 10:56:12;;;;;;;9.73;5.05;;;;;;;-0.81;75.22;95298.06;5062491;28;20195;-80
2022/01/26 10:58:40;;;;;;;6.47;3.72;;;;;;;-0.80;74.97;95307.66;5074019;28;20616;-80
2022/01/26 11:01:06;;;;;;;14.60;4.50;;;;;;;-0.62;74.87;95303.97;5072137;28;20198;-82
2022/01/26 11:03:34;;;;;;;7.35;3.90;;;;;;;-0.62;74.67;95292.53;5072772;28;20689;-84
2022/01/26 11:06:01;;;;;;;7.93;4.43;;;;;;;-0.77;75.47;95301.06;5070267;28;20250;-78
2022/01/26 11:08:29;;;;;;;6.70;3.72;;;;;;;-0.68;75.24;95298.81;5070455;28;20219;-82
2022/01/26 11:10:56;;;;;;;12.95;6.13;;;;;;;-0.63;74.50;95301.56;5070235;28;20229;-80
2022/01/26 11:13:27;;;;;;;6.75;4.95;;;;;;;-0.82;75.67;95293.78;5070302;28;20222;-84
2022/01/26 11:15:55;;;;;;;8.07;5.03;;;;;;;-0.89;75.32;95293.16;5069537;28;20865;-81
2022/01/26 11:18:28;;;;;;;4.95;2.45;;;;;;;-0.88;75.44;95297.44;5068445;28;20237;-79
2022/01/26 11:20:55;;;;;;;7.80;4.10;;;;;;;-0.72;75.37;95288.66;5067718;28;20247;-83
2022/01/26 11:23:35;;;;;;;8.82;4.50;;;;;;;-0.76;75.40;95287.53;5070139;28;20677;-78
2022/01/26 11:26:02;;;;;;;11.32;4.57;;;;;;;-0.79;75.54;95293.31;5064892;28;20681;-79
2022/01/26 11:28:31;;;;;;;9.30;4.00;;;;;;;-0.86;75.50;95271.41;5066691;28;20202;-79
2022/01/26 11:31:05;;;;;;;7.70;4.43;;;;;;;-0.89;75.81;95282.50;5068854;28;20234;-78
2022/01/26 11:33:36;;;;;;;6.35;3.83;;;;;;;-0.81;75.79;95295.41;5063678;28;20634;-77
2022/01/26 11:36:03;;;;;;;6.25;3.78;;;;;;;-0.69;75.49;95289.22;5066876;28;20282;-74
2022/01/26 11:39:14;;;;;;;6.88;2.67;;;;;;;-0.63;75.62;95275.75;5070534;28;20210;-75
2022/01/26 11:47:19;;;;;;;7.32;3.78;;;;;;;-0.47;74.92;95263.50;5060606;28;20252;-76
2022/01/26 11:49:47;;;;;;;6.45;3.42;;;;;;;-0.44;74.47;95260.38;5070352;28;20217;-77
2022/01/26 11:52:22;;;;;;;5.40;3.50;;;;;;;-0.41;75.04;95263.31;5068273;28;20218;-77
2022/01/26 11:54:52;;;;;;;12.93;4.60;;;;;;;-0.47;74.70;95263.50;5075246;28;20237;-76
2022/01/26 11:57:21;;;;;;;8.27;3.63;;;;;;;-0.65;75.63;95266.41;5076012;28;20222;-78
2022/01/26 12:00:02;;;;;;;4.70;3.65;;;;;;;-0.47;75.70;95258.19;5063720;28;20226;-77
2022/01/26 12:02:49;;;;;;;7.80;3.50;;;;;;;-0.50;75.49;95271.97;5059698;28;20231;-78
2022/01/26 12:05:21;;;;;;;7.07;3.80;;;;;;;-0.48;75.63;95256.56;5074005;28;20736;-75
2022/01/26 12:07:48;;;;;;;10.40;4.95;;;;;;;-0.51;75.94;95265.03;5074088;28;20248;-76
2022/01/26 12:10:26;;;;;;;10.13;4.13;;;;;;;-0.58;76.72;95267.88;5074266;28;20222;-75
2022/01/26 12:13:01;;;;;;;4.95;2.80;;;;;;;-0.51;76.60;95278.34;5074383;28;20898;-78
2022/01/26 12:15:34;;;;;;;7.72;4.03;;;;;;;-0.72;77.28;95272.72;5061015;28;20201;-78
2022/01/26 12:18:16;;;;;;;8.15;4.60;;;;;;;-0.73;77.50;95260.44;5073909;28;20315;-77
2022/01/26 12:35:30;;;;;;;4.95;2.42;;;;;;;-0.73;78.88;95259.66;5062170;28;20241;-75
2022/01/26 12:38:02;;;;;;;6.38;4.00;;;;;;;-0.83;79.00;95254.97;5072070;28;20716;-73
2022/01/26 12:43:21;;;;;;;7.65;4.65;;;;;;;-0.78;79.03;95247.06;5062505;28;20293;-73
2022/01/26 12:45:54;;;;;;;7.97;4.00;;;;;;;-0.87;79.21;95251.16;5073272;28;20202;-74
2022/01/26 12:48:23;;;;;;;10.23;4.47;;;;;;;-0.80;78.97;95249.16;5072428;28;20207;-74
2022/01/26 12:50:51;;;;;;;11.35;4.93;;;;;;;-0.90;78.90;95254.31;5072633;28;20713;-74
2022/01/26 12:53:25;;;;;;;7.07;4.15;;;;;;;-0.80;78.47;95254.47;5073087;28;20569;-77
2022/01/26 12:55:58;;;;;;;6.60;4.60;;;;;;;-0.72;78.27;95254.09;5073209;28;20289;-78
2022/01/26 12:58:26;;;;;;;7.45;3.83;;;;;;;-0.74;77.74;95242.88;5072689;28;20766;-75
2022/01/26 13:00:53;;;;;;;10.43;5.32;;;;;;;-0.60;78.25;95234.56;5059728;28;20277;-79
2022/01/26 13:03:23;;;;;;;8.05;3.67;;;;;;;-0.62;77.71;95240.13;5086261;28;20268;-75
2022/01/26 13:05:50;;;;;;;7.03;4.15;;;;;;;-0.59;77.58;95228.22;5072798;28;20229;-76
2022/01/26 13:08:17;;;;;;;6.95;3.70;;;;;;;-0.43;77.35;95230.06;5072496;28;20207;-76
2022/01/26 13:10:43;;;;;;;15.65;5.88;;;;;;;-0.46;77.02;95230.53;5072011;28;20696;-75
2022/01/26 13:13:17;;;;;;;6.13;3.45;;;;;;;-0.25;76.51;95232.41;5072823;28;20206;-78
2022/01/26 13:15:51;;;;;;;4.95;3.10;;;;;;;-0.11;76.16;95225.69;5072021;28;20194;-74
2022/01/26 13:18:29;;;;;;;6.00;3.38;;;;;;;-0.11;75.91;95225.69;5072295;28;20258;-76
2022/01/26 13:23:49;;;;;;;10.20;4.22;;;;;;;-0.31;75.75;95214.78;5071407;28;20244;-76
2022/01/26 13:26:24;;;;;;;8.45;5.22;;;;;;;-0.31;75.52;95224.63;5072782;28;20222;-77